sensor_id;sensor_type;location;lat;lon;timestamp;P1;durP1;ratioP1;P2;durP2;ratioP2
78344;SDS011;67620;51.134;6.548;2023-07-02T00:02:24;1.98;;;1.08;;
78344;SDS011;67620;51.134;6.548;2023-07-02T00:04:50;1.85;;;1.10;;
78344;SDS011;67620;51.134;6.548;2023-07-02T00:07:16;1.75;;;1.27;;
78344;SDS011;67620;51.134;6.548;2023-07-02T00:09:41;1.73;;;1.20;;
78344;SDS011;67620;51.134;6.548;2023-07-02T00:12:07;2.05;;;1.38;;
78344;SDS011;67620;51.134;6.548;2023-07-02T00:14:33;1.38;;;1.00;;
78344;SDS011;67620;51.134;6.548;2023-07-02T00:16:59;2.40;;;1.20;;
78344;SDS011;67620;51.134;6.548;2023-07-02T00:19:25;2.10;;;1.23;;
78344;SDS011;67620;51.134;6.548;2023-07-02T00:21:50;1.52;;;1.05;;
78344;SDS011;67620;51.134;6.548;2023-07-02T00:24:18;1.80;;;1.20;;
78344;SDS011;67620;51.134;6.548;2023-07-02T00:26:43;1.65;;;1.20;;
78344;SDS011;67620;51.134;6.548;2023-07-02T00:29:09;1.58;;;1.13;;
78344;SDS011;67620;51.134;6.548;2023-07-02T00:31:36;1.55;;;1.23;;
78344;SDS011;67620;51.134;6.548;2023-07-02T00:34:02;2.28;;;1.33;;
78344;SDS011;67620;51.134;6.548;2023-07-02T00:36:29;2.92;;;1.25;;
78344;SDS011;67620;51.134;6.548;2023-07-02T00:38:55;1.77;;;1.25;;
78344;SDS011;67620;51.134;6.548;2023-07-02T00:41:21;2.13;;;1.45;;
78344;SDS011;67620;51.134;6.548;2023-07-02T00:43:47;1.98;;;1.23;;
78344;SDS011;67620;51.134;6.548;2023-07-02T00:46:14;2.30;;;1.20;;
78344;SDS011;67620;51.134;6.548;2023-07-02T00:48:48;2.22;;;1.20;;
78344;SDS011;67620;51.134;6.548;2023-07-02T00:51:15;1.92;;;1.23;;
78344;SDS011;67620;51.134;6.548;2023-07-02T00:53:46;2.60;;;1.80;;
78344;SDS011;67620;51.134;6.548;2023-07-02T00:56:13;2.33;;;1.30;;
78344;SDS011;67620;51.134;6.548;2023-07-02T00:58:40;1.98;;;1.50;;
78344;SDS011;67620;51.134;6.548;2023-07-02T01:01:12;3.22;;;1.58;;
78344;SDS011;67620;51.134;6.548;2023-07-02T01:03:38;2.38;;;1.55;;
78344;SDS011;67620;51.134;6.548;2023-07-02T01:06:06;2.25;;;1.42;;
78344;SDS011;67620;51.134;6.548;2023-07-02T01:08:32;1.75;;;1.23;;
78344;SDS011;67620;51.134;6.548;2023-07-02T01:10:57;2.75;;;1.70;;
78344;SDS011;67620;51.134;6.548;2023-07-02T01:13:24;2.17;;;1.35;;
78344;SDS011;67620;51.134;6.548;2023-07-02T01:15:50;2.67;;;1.70;;
78344;SDS011;67620;51.134;6.548;2023-07-02T01:18:16;2.58;;;1.27;;
78344;SDS011;67620;51.134;6.548;2023-07-02T01:20:42;2.72;;;1.55;;
78344;SDS011;67620;51.134;6.548;2023-07-02T01:23:08;2.58;;;1.70;;
78344;SDS011;67620;51.134;6.548;2023-07-02T01:25:34;2.90;;;1.40;;
78344;SDS011;67620;51.134;6.548;2023-07-02T01:28:02;2.83;;;1.80;;
78344;SDS011;67620;51.134;6.548;2023-07-02T01:30:27;2.17;;;1.55;;
78344;SDS011;67620;51.134;6.548;2023-07-02T01:32:53;2.45;;;1.77;;
78344;SDS011;67620;51.134;6.548;2023-07-02T01:35:19;2.97;;;1.63;;
78344;SDS011;67620;51.134;6.548;2023-07-02T01:37:44;2.33;;;1.58;;
78344;SDS011;67620;51.134;6.548;2023-07-02T01:40:10;2.95;;;1.90;;
78344;SDS011;67620;51.134;6.548;2023-07-02T01:42:35;2.17;;;1.50;;
78344;SDS011;67620;51.134;6.548;2023-07-02T01:45:01;3.45;;;1.80;;
78344;SDS011;67620;51.134;6.548;2023-07-02T01:47:26;3.15;;;1.70;;
78344;SDS011;67620;51.134;6.548;2023-07-02T01:49:52;4.00;;;1.90;;
78344;SDS011;67620;51.134;6.548;2023-07-02T01:52:17;4.00;;;2.00;;
78344;SDS011;67620;51.134;6.548;2023-07-02T01:54:45;3.38;;;1.90;;
78344;SDS011;67620;51.134;6.548;2023-07-02T01:57:11;3.72;;;1.98;;
78344;SDS011;67620;51.134;6.548;2023-07-02T01:59:37;2.60;;;1.65;;
78344;SDS011;67620;51.134;6.548;2023-07-02T02:02:02;3.25;;;1.95;;
78344;SDS011;67620;51.134;6.548;2023-07-02T02:04:28;4.00;;;2.15;;
78344;SDS011;67620;51.134;6.548;2023-07-02T02:06:54;2.78;;;1.73;;
78344;SDS011;67620;51.134;6.548;2023-07-02T02:09:19;3.03;;;1.90;;
78344;SDS011;67620;51.134;6.548;2023-07-02T02:11:47;3.60;;;2.30;;
78344;SDS011;67620;51.134;6.548;2023-07-02T02:14:14;4.38;;;2.45;;
78344;SDS011;67620;51.134;6.548;2023-07-02T02:16:39;3.17;;;2.20;;
78344;SDS011;67620;51.134;6.548;2023-07-02T02:19:05;3.78;;;2.47;;
78344;SDS011;67620;51.134;6.548;2023-07-02T02:21:30;3.97;;;2.30;;
78344;SDS011;67620;51.134;6.548;2023-07-02T02:23:56;4.57;;;2.70;;
78344;SDS011;67620;51.134;6.548;2023-07-02T02:26:22;3.38;;;2.22;;
78344;SDS011;67620;51.134;6.548;2023-07-02T02:28:49;4.38;;;2.20;;
78344;SDS011;67620;51.134;6.548;2023-07-02T02:31:15;3.45;;;2.17;;
78344;SDS011;67620;51.134;6.548;2023-07-02T02:33:41;4.40;;;2.42;;
78344;SDS011;67620;51.134;6.548;2023-07-02T02:36:06;3.40;;;1.98;;
78344;SDS011;67620;51.134;6.548;2023-07-02T02:38:32;4.25;;;2.53;;
78344;SDS011;67620;51.134;6.548;2023-07-02T02:40:59;5.22;;;2.95;;
78344;SDS011;67620;51.134;6.548;2023-07-02T02:43:25;3.90;;;2.70;;
78344;SDS011;67620;51.134;6.548;2023-07-02T02:45:51;3.47;;;2.45;;
78344;SDS011;67620;51.134;6.548;2023-07-02T02:48:16;5.20;;;2.92;;
78344;SDS011;67620;51.134;6.548;2023-07-02T02:50:41;4.28;;;2.63;;
78344;SDS011;67620;51.134;6.548;2023-07-02T02:53:08;3.65;;;2.70;;
78344;SDS011;67620;51.134;6.548;2023-07-02T02:55:33;4.90;;;2.97;;
78344;SDS011;67620;51.134;6.548;2023-07-02T02:57:59;4.60;;;2.97;;
78344;SDS011;67620;51.134;6.548;2023-07-02T03:00:25;4.78;;;3.08;;
78344;SDS011;67620;51.134;6.548;2023-07-02T03:02:50;5.18;;;3.10;;
78344;SDS011;67620;51.134;6.548;2023-07-02T03:05:16;4.32;;;3.20;;
78344;SDS011;67620;51.134;6.548;2023-07-02T03:07:41;5.03;;;3.22;;
78344;SDS011;67620;51.134;6.548;2023-07-02T03:10:07;5.15;;;3.08;;
78344;SDS011;67620;51.134;6.548;2023-07-02T03:12:33;4.63;;;3.03;;
78344;SDS011;67620;51.134;6.548;2023-07-02T03:14:58;5.30;;;3.20;;
78344;SDS011;67620;51.134;6.548;2023-07-02T03:17:24;4.85;;;3.22;;
78344;SDS011;67620;51.134;6.548;2023-07-02T03:19:49;4.60;;;2.90;;
78344;SDS011;67620;51.134;6.548;2023-07-02T03:22:15;5.35;;;3.08;;
78344;SDS011;67620;51.134;6.548;2023-07-02T03:24:41;5.18;;;3.10;;
78344;SDS011;67620;51.134;6.548;2023-07-02T03:27:06;4.85;;;3.15;;
78344;SDS011;67620;51.134;6.548;2023-07-02T03:29:33;4.60;;;3.05;;
78344;SDS011;67620;51.134;6.548;2023-07-02T03:32:00;5.40;;;3.50;;
78344;SDS011;67620;51.134;6.548;2023-07-02T03:34:26;4.80;;;2.95;;
78344;SDS011;67620;51.134;6.548;2023-07-02T03:36:51;5.53;;;3.78;;
78344;SDS011;67620;51.134;6.548;2023-07-02T03:39:17;6.80;;;3.97;;
78344;SDS011;67620;51.134;6.548;2023-07-02T03:41:43;5.13;;;3.38;;
78344;SDS011;67620;51.134;6.548;2023-07-02T03:44:09;5.75;;;3.80;;
78344;SDS011;67620;51.134;6.548;2023-07-02T03:46:34;5.18;;;3.63;;
78344;SDS011;67620;51.134;6.548;2023-07-02T03:49:00;6.00;;;3.72;;
78344;SDS011;67620;51.134;6.548;2023-07-02T03:51:26;5.55;;;3.83;;
78344;SDS011;67620;51.134;6.548;2023-07-02T03:53:51;7.28;;;4.20;;
78344;SDS011;67620;51.134;6.548;2023-07-02T03:56:17;5.50;;;3.90;;
78344;SDS011;67620;51.134;6.548;2023-07-02T03:58:42;6.18;;;3.63;;
78344;SDS011;67620;51.134;6.548;2023-07-02T04:01:08;5.78;;;3.92;;
78344;SDS011;67620;51.134;6.548;2023-07-02T04:03:33;6.03;;;3.72;;
78344;SDS011;67620;51.134;6.548;2023-07-02T04:05:59;7.15;;;3.97;;
78344;SDS011;67620;51.134;6.548;2023-07-02T04:08:25;6.32;;;3.95;;
78344;SDS011;67620;51.134;6.548;2023-07-02T04:10:53;6.15;;;3.90;;
78344;SDS011;67620;51.134;6.548;2023-07-02T04:13:19;5.60;;;4.10;;
78344;SDS011;67620;51.134;6.548;2023-07-02T04:15:44;6.93;;;4.10;;
78344;SDS011;67620;51.134;6.548;2023-07-02T04:18:10;6.95;;;4.45;;
78344;SDS011;67620;51.134;6.548;2023-07-02T04:20:35;6.82;;;4.40;;
78344;SDS011;67620;51.134;6.548;2023-07-02T04:23:03;6.30;;;4.20;;
78344;SDS011;67620;51.134;6.548;2023-07-02T04:25:32;7.55;;;4.60;;
78344;SDS011;67620;51.134;6.548;2023-07-02T04:27:58;7.25;;;4.70;;
78344;SDS011;67620;51.134;6.548;2023-07-02T04:30:24;8.73;;;5.05;;
78344;SDS011;67620;51.134;6.548;2023-07-02T04:32:50;6.03;;;4.55;;
78344;SDS011;67620;51.134;6.548;2023-07-02T04:35:16;8.88;;;4.97;;
78344;SDS011;67620;51.134;6.548;2023-07-02T04:37:42;6.88;;;4.65;;
78344;SDS011;67620;51.134;6.548;2023-07-02T04:40:08;6.82;;;4.40;;
78344;SDS011;67620;51.134;6.548;2023-07-02T04:42:36;7.47;;;4.90;;
78344;SDS011;67620;51.134;6.548;2023-07-02T04:45:03;6.68;;;4.68;;
78344;SDS011;67620;51.134;6.548;2023-07-02T04:47:32;7.22;;;4.70;;
78344;SDS011;67620;51.134;6.548;2023-07-02T04:49:58;7.47;;;4.65;;
78344;SDS011;67620;51.134;6.548;2023-07-02T04:52:24;8.52;;;4.95;;
78344;SDS011;67620;51.134;6.548;2023-07-02T04:54:49;6.30;;;4.65;;
78344;SDS011;67620;51.134;6.548;2023-07-02T04:57:15;8.27;;;5.10;;
78344;SDS011;67620;51.134;6.548;2023-07-02T04:59:41;8.85;;;5.65;;
78344;SDS011;67620;51.134;6.548;2023-07-02T05:02:07;8.95;;;5.38;;
78344;SDS011;67620;51.134;6.548;2023-07-02T05:04:33;7.63;;;5.03;;
78344;SDS011;67620;51.134;6.548;2023-07-02T05:06:59;7.40;;;5.03;;
78344;SDS011;67620;51.134;6.548;2023-07-02T05:09:25;7.32;;;4.85;;
78344;SDS011;67620;51.134;6.548;2023-07-02T05:11:50;7.18;;;4.88;;
78344;SDS011;67620;51.134;6.548;2023-07-02T05:14:16;8.13;;;5.53;;
78344;SDS011;67620;51.134;6.548;2023-07-02T05:16:41;6.78;;;4.93;;
78344;SDS011;67620;51.134;6.548;2023-07-02T05:19:07;8.43;;;5.28;;
78344;SDS011;67620;51.134;6.548;2023-07-02T05:21:32;7.90;;;5.18;;
78344;SDS011;67620;51.134;6.548;2023-07-02T05:23:58;8.35;;;5.40;;
78344;SDS011;67620;51.134;6.548;2023-07-02T05:26:23;8.02;;;5.95;;
78344;SDS011;67620;51.134;6.548;2023-07-02T05:28:49;8.48;;;5.45;;
78344;SDS011;67620;51.134;6.548;2023-07-02T05:31:14;8.35;;;4.75;;
78344;SDS011;67620;51.134;6.548;2023-07-02T05:33:40;8.57;;;5.18;;
78344;SDS011;67620;51.134;6.548;2023-07-02T05:36:05;9.20;;;5.68;;
78344;SDS011;67620;51.134;6.548;2023-07-02T05:38:31;8.32;;;5.88;;
78344;SDS011;67620;51.134;6.548;2023-07-02T05:40:57;8.57;;;6.00;;
78344;SDS011;67620;51.134;6.548;2023-07-02T05:43:22;8.20;;;5.55;;
78344;SDS011;67620;51.134;6.548;2023-07-02T05:45:49;8.95;;;5.60;;
78344;SDS011;67620;51.134;6.548;2023-07-02T05:48:15;8.55;;;5.88;;
78344;SDS011;67620;51.134;6.548;2023-07-02T05:50:41;8.30;;;5.57;;
78344;SDS011;67620;51.134;6.548;2023-07-02T05:53:06;9.40;;;6.10;;
78344;SDS011;67620;51.134;6.548;2023-07-02T05:55:34;9.75;;;6.32;;
78344;SDS011;67620;51.134;6.548;2023-07-02T05:57:59;9.13;;;5.90;;
78344;SDS011;67620;51.134;6.548;2023-07-02T06:00:26;8.10;;;5.78;;
78344;SDS011;67620;51.134;6.548;2023-07-02T06:02:52;8.35;;;5.85;;
78344;SDS011;67620;51.134;6.548;2023-07-02T06:05:17;9.85;;;5.65;;
78344;SDS011;67620;51.134;6.548;2023-07-02T06:07:43;8.60;;;5.80;;
78344;SDS011;67620;51.134;6.548;2023-07-02T06:10:08;9.88;;;5.63;;
78344;SDS011;67620;51.134;6.548;2023-07-02T06:12:34;8.15;;;5.40;;
78344;SDS011;67620;51.134;6.548;2023-07-02T06:15:00;8.10;;;5.47;;
78344;SDS011;67620;51.134;6.548;2023-07-02T06:17:25;9.25;;;6.00;;
78344;SDS011;67620;51.134;6.548;2023-07-02T06:19:51;9.50;;;6.07;;
78344;SDS011;67620;51.134;6.548;2023-07-02T06:22:16;7.53;;;5.60;;
78344;SDS011;67620;51.134;6.548;2023-07-02T06:24:42;9.00;;;6.13;;
78344;SDS011;67620;51.134;6.548;2023-07-02T06:27:08;8.95;;;5.72;;
78344;SDS011;67620;51.134;6.548;2023-07-02T06:29:33;8.20;;;5.50;;
78344;SDS011;67620;51.134;6.548;2023-07-02T06:31:59;9.02;;;5.93;;
78344;SDS011;67620;51.134;6.548;2023-07-02T06:34:24;9.35;;;5.78;;
78344;SDS011;67620;51.134;6.548;2023-07-02T06:36:50;7.55;;;5.28;;
78344;SDS011;67620;51.134;6.548;2023-07-02T06:39:15;8.38;;;5.50;;
78344;SDS011;67620;51.134;6.548;2023-07-02T06:41:41;8.43;;;5.65;;
78344;SDS011;67620;51.134;6.548;2023-07-02T06:44:06;7.70;;;5.50;;
78344;SDS011;67620;51.134;6.548;2023-07-02T06:46:32;8.43;;;5.70;;
78344;SDS011;67620;51.134;6.548;2023-07-02T06:48:57;8.93;;;5.97;;
78344;SDS011;67620;51.134;6.548;2023-07-02T06:51:23;8.77;;;6.03;;
78344;SDS011;67620;51.134;6.548;2023-07-02T06:53:51;8.82;;;6.18;;
78344;SDS011;67620;51.134;6.548;2023-07-02T06:56:16;8.68;;;5.90;;
78344;SDS011;67620;51.134;6.548;2023-07-02T06:58:42;10.13;;;6.88;;
78344;SDS011;67620;51.134;6.548;2023-07-02T07:01:08;8.70;;;5.78;;
78344;SDS011;67620;51.134;6.548;2023-07-02T07:03:37;9.48;;;6.20;;
78344;SDS011;67620;51.134;6.548;2023-07-02T07:06:02;8.45;;;6.00;;
78344;SDS011;67620;51.134;6.548;2023-07-02T07:08:28;10.05;;;6.43;;
78344;SDS011;67620;51.134;6.548;2023-07-02T07:10:54;7.78;;;5.60;;
78344;SDS011;67620;51.134;6.548;2023-07-02T07:13:19;7.38;;;5.22;;
78344;SDS011;67620;51.134;6.548;2023-07-02T07:15:45;8.70;;;5.70;;
78344;SDS011;67620;51.134;6.548;2023-07-02T07:18:10;8.07;;;5.72;;
78344;SDS011;67620;51.134;6.548;2023-07-02T07:20:36;9.70;;;6.18;;
78344;SDS011;67620;51.134;6.548;2023-07-02T07:23:04;8.73;;;5.55;;
78344;SDS011;67620;51.134;6.548;2023-07-02T07:25:30;9.00;;;6.00;;
78344;SDS011;67620;51.134;6.548;2023-07-02T07:27:57;8.73;;;6.00;;
78344;SDS011;67620;51.134;6.548;2023-07-02T07:30:24;9.27;;;5.90;;
78344;SDS011;67620;51.134;6.548;2023-07-02T07:32:50;8.43;;;5.55;;
78344;SDS011;67620;51.134;6.548;2023-07-02T07:35:16;7.57;;;5.60;;
78344;SDS011;67620;51.134;6.548;2023-07-02T07:37:42;7.63;;;5.93;;
78344;SDS011;67620;51.134;6.548;2023-07-02T07:40:08;8.70;;;6.10;;
78344;SDS011;67620;51.134;6.548;2023-07-02T07:42:33;7.93;;;5.90;;
78344;SDS011;67620;51.134;6.548;2023-07-02T07:44:59;7.78;;;5.93;;
78344;SDS011;67620;51.134;6.548;2023-07-02T07:47:24;8.90;;;5.97;;
78344;SDS011;67620;51.134;6.548;2023-07-02T07:49:50;9.18;;;6.10;;
78344;SDS011;67620;51.134;6.548;2023-07-02T07:52:15;7.65;;;5.60;;
78344;SDS011;67620;51.134;6.548;2023-07-02T07:54:41;9.57;;;6.22;;
78344;SDS011;67620;51.134;6.548;2023-07-02T07:57:06;9.25;;;5.85;;
78344;SDS011;67620;51.134;6.548;2023-07-02T07:59:32;8.30;;;6.18;;
78344;SDS011;67620;51.134;6.548;2023-07-02T08:01:57;8.55;;;5.72;;
78344;SDS011;67620;51.134;6.548;2023-07-02T08:04:23;8.73;;;5.97;;
78344;SDS011;67620;51.134;6.548;2023-07-02T08:06:48;7.47;;;5.55;;
78344;SDS011;67620;51.134;6.548;2023-07-02T08:09:14;8.93;;;6.00;;
78344;SDS011;67620;51.134;6.548;2023-07-02T08:11:39;9.48;;;6.15;;
78344;SDS011;67620;51.134;6.548;2023-07-02T08:14:05;9.93;;;6.15;;
78344;SDS011;67620;51.134;6.548;2023-07-02T08:16:30;8.40;;;5.75;;
78344;SDS011;67620;51.134;6.548;2023-07-02T08:18:56;8.15;;;6.00;;
78344;SDS011;67620;51.134;6.548;2023-07-02T08:21:21;9.40;;;6.10;;
78344;SDS011;67620;51.134;6.548;2023-07-02T08:23:47;10.48;;;6.03;;
78344;SDS011;67620;51.134;6.548;2023-07-02T08:26:12;9.02;;;6.38;;
78344;SDS011;67620;51.134;6.548;2023-07-02T08:28:39;10.02;;;5.97;;
78344;SDS011;67620;51.134;6.548;2023-07-02T08:31:04;10.02;;;6.40;;
78344;SDS011;67620;51.134;6.548;2023-07-02T08:33:30;8.13;;;6.03;;
78344;SDS011;67620;51.134;6.548;2023-07-02T08:35:56;9.52;;;6.50;;
78344;SDS011;67620;51.134;6.548;2023-07-02T08:38:22;10.73;;;5.97;;
78344;SDS011;67620;51.134;6.548;2023-07-02T08:40:50;8.50;;;5.75;;
78344;SDS011;67620;51.134;6.548;2023-07-02T08:43:16;8.80;;;6.22;;
78344;SDS011;67620;51.134;6.548;2023-07-02T08:45:41;10.75;;;6.10;;
78344;SDS011;67620;51.134;6.548;2023-07-02T08:48:07;9.80;;;6.07;;
78344;SDS011;67620;51.134;6.548;2023-07-02T08:50:33;9.07;;;6.03;;
78344;SDS011;67620;51.134;6.548;2023-07-02T08:52:59;9.75;;;6.72;;
78344;SDS011;67620;51.134;6.548;2023-07-02T08:55:24;8.18;;;6.15;;
78344;SDS011;67620;51.134;6.548;2023-07-02T08:57:52;8.75;;;6.10;;
78344;SDS011;67620;51.134;6.548;2023-07-02T09:00:18;8.52;;;6.40;;
78344;SDS011;67620;51.134;6.548;2023-07-02T09:02:44;8.45;;;6.05;;
78344;SDS011;67620;51.134;6.548;2023-07-02T09:05:11;8.80;;;6.10;;
78344;SDS011;67620;51.134;6.548;2023-07-02T09:07:46;9.93;;;6.95;;
78344;SDS011;67620;51.134;6.548;2023-07-02T09:10:24;7.82;;;5.70;;
78344;SDS011;67620;51.134;6.548;2023-07-02T09:13:06;9.20;;;5.90;;
78344;SDS011;67620;51.134;6.548;2023-07-02T09:15:39;9.00;;;6.15;;
78344;SDS011;67620;51.134;6.548;2023-07-02T09:18:14;8.95;;;6.38;;
78344;SDS011;67620;51.134;6.548;2023-07-02T09:20:40;9.63;;;6.40;;
78344;SDS011;67620;51.134;6.548;2023-07-02T09:23:05;8.93;;;6.03;;
78344;SDS011;67620;51.134;6.548;2023-07-02T09:25:37;9.00;;;6.43;;
78344;SDS011;67620;51.134;6.548;2023-07-02T09:28:13;8.15;;;5.85;;
78344;SDS011;67620;51.134;6.548;2023-07-02T09:31:16;9.73;;;6.05;;
78344;SDS011;67620;51.134;6.548;2023-07-02T09:33:34;8.82;;;5.85;;
78344;SDS011;67620;51.134;6.548;2023-07-02T09:36:00;8.25;;;5.55;;
78344;SDS011;67620;51.134;6.548;2023-07-02T09:38:25;8.23;;;5.90;;
78344;SDS011;67620;51.134;6.548;2023-07-02T09:40:51;8.48;;;6.03;;
78344;SDS011;67620;51.134;6.548;2023-07-02T09:43:18;9.75;;;6.47;;
78344;SDS011;67620;51.134;6.548;2023-07-02T09:45:45;9.38;;;6.38;;
78344;SDS011;67620;51.134;6.548;2023-07-02T09:48:15;9.52;;;6.43;;
78344;SDS011;67620;51.134;6.548;2023-07-02T09:50:44;8.95;;;6.07;;
78344;SDS011;67620;51.134;6.548;2023-07-02T09:53:11;9.68;;;6.45;;
78344;SDS011;67620;51.134;6.548;2023-07-02T09:55:43;8.68;;;6.38;;
78344;SDS011;67620;51.134;6.548;2023-07-02T09:58:09;8.82;;;5.93;;
78344;SDS011;67620;51.134;6.548;2023-07-02T10:00:36;8.57;;;5.90;;
78344;SDS011;67620;51.134;6.548;2023-07-02T10:03:03;9.48;;;6.47;;
78344;SDS011;67620;51.134;6.548;2023-07-02T10:05:29;7.95;;;5.70;;
78344;SDS011;67620;51.134;6.548;2023-07-02T10:08:00;9.27;;;6.20;;
78344;SDS011;67620;51.134;6.548;2023-07-02T10:10:42;8.20;;;6.38;;
78344;SDS011;67620;51.134;6.548;2023-07-02T10:13:08;8.40;;;6.10;;
78344;SDS011;67620;51.134;6.548;2023-07-02T10:15:33;10.48;;;6.53;;
78344;SDS011;67620;51.134;6.548;2023-07-02T10:18:02;8.75;;;6.13;;
78344;SDS011;67620;51.134;6.548;2023-07-02T10:20:35;8.15;;;6.03;;
78344;SDS011;67620;51.134;6.548;2023-07-02T10:23:03;9.63;;;6.57;;
78344;SDS011;67620;51.134;6.548;2023-07-02T10:25:31;8.88;;;6.18;;
78344;SDS011;67620;51.134;6.548;2023-07-02T10:27:59;10.00;;;6.72;;
78344;SDS011;67620;51.134;6.548;2023-07-02T10:30:36;9.32;;;6.85;;
78344;SDS011;67620;51.134;6.548;2023-07-02T10:33:09;8.57;;;6.32;;
78344;SDS011;67620;51.134;6.548;2023-07-02T10:35:39;8.30;;;5.57;;
78344;SDS011;67620;51.134;6.548;2023-07-02T10:38:18;8.88;;;6.22;;
78344;SDS011;67620;51.134;6.548;2023-07-02T10:40:45;8.25;;;5.75;;
78344;SDS011;67620;51.134;6.548;2023-07-02T10:43:11;9.40;;;6.60;;
78344;SDS011;67620;51.134;6.548;2023-07-02T10:45:37;8.50;;;6.18;;
78344;SDS011;67620;51.134;6.548;2023-07-02T10:48:03;8.15;;;5.97;;
78344;SDS011;67620;51.134;6.548;2023-07-02T10:50:33;8.18;;;6.18;;
78344;SDS011;67620;51.134;6.548;2023-07-02T10:52:58;8.60;;;6.20;;
78344;SDS011;67620;51.134;6.548;2023-07-02T10:55:24;9.10;;;6.32;;
78344;SDS011;67620;51.134;6.548;2023-07-02T10:58:01;8.38;;;5.88;;
78344;SDS011;67620;51.134;6.548;2023-07-02T11:00:30;8.05;;;5.93;;
78344;SDS011;67620;51.134;6.548;2023-07-02T11:02:56;8.05;;;5.55;;
78344;SDS011;67620;51.134;6.548;2023-07-02T11:05:22;8.45;;;5.90;;
78344;SDS011;67620;51.134;6.548;2023-07-02T11:07:48;8.90;;;6.68;;
78344;SDS011;67620;51.134;6.548;2023-07-02T11:10:19;8.63;;;6.32;;
78344;SDS011;67620;51.134;6.548;2023-07-02T11:12:45;7.57;;;5.57;;
78344;SDS011;67620;51.134;6.548;2023-07-02T11:15:11;8.77;;;6.10;;
78344;SDS011;67620;51.134;6.548;2023-07-02T11:17:39;9.48;;;6.28;;
78344;SDS011;67620;51.134;6.548;2023-07-02T11:20:08;8.60;;;6.20;;
78344;SDS011;67620;51.134;6.548;2023-07-02T11:22:36;8.23;;;5.68;;
78344;SDS011;67620;51.134;6.548;2023-07-02T11:25:12;6.90;;;5.90;;
78344;SDS011;67620;51.134;6.548;2023-07-02T11:27:40;7.45;;;5.65;;
78344;SDS011;67620;51.134;6.548;2023-07-02T11:30:06;7.72;;;6.03;;
78344;SDS011;67620;51.134;6.548;2023-07-02T11:32:35;8.85;;;5.70;;
78344;SDS011;67620;51.134;6.548;2023-07-02T11:37:42;8.43;;;5.93;;
78344;SDS011;67620;51.134;6.548;2023-07-02T11:40:09;7.88;;;5.90;;
78344;SDS011;67620;51.134;6.548;2023-07-02T11:42:34;10.50;;;6.25;;
78344;SDS011;67620;51.134;6.548;2023-07-02T11:45:00;10.85;;;6.55;;
78344;SDS011;67620;51.134;6.548;2023-07-02T11:47:25;8.70;;;6.38;;
78344;SDS011;67620;51.134;6.548;2023-07-02T11:49:52;9.23;;;6.15;;
78344;SDS011;67620;51.134;6.548;2023-07-02T11:52:19;7.30;;;5.38;;
78344;SDS011;67620;51.134;6.548;2023-07-02T11:54:45;8.40;;;6.07;;
78344;SDS011;67620;51.134;6.548;2023-07-02T11:57:11;9.07;;;6.10;;
78344;SDS011;67620;51.134;6.548;2023-07-02T11:59:36;8.90;;;5.90;;
78344;SDS011;67620;51.134;6.548;2023-07-02T12:02:02;9.20;;;5.68;;
78344;SDS011;67620;51.134;6.548;2023-07-02T12:04:28;9.55;;;6.30;;
78344;SDS011;67620;51.134;6.548;2023-07-02T12:06:53;8.30;;;5.55;;
78344;SDS011;67620;51.134;6.548;2023-07-02T12:09:19;10.45;;;5.72;;
78344;SDS011;67620;51.134;6.548;2023-07-02T12:11:44;8.63;;;5.85;;
78344;SDS011;67620;51.134;6.548;2023-07-02T12:14:10;8.25;;;5.70;;
78344;SDS011;67620;51.134;6.548;2023-07-02T12:16:36;9.75;;;5.80;;
78344;SDS011;67620;51.134;6.548;2023-07-02T12:19:02;8.93;;;5.90;;
78344;SDS011;67620;51.134;6.548;2023-07-02T12:21:27;7.60;;;5.90;;
78344;SDS011;67620;51.134;6.548;2023-07-02T12:23:53;8.85;;;5.38;;
78344;SDS011;67620;51.134;6.548;2023-07-02T12:26:18;10.55;;;5.82;;
78344;SDS011;67620;51.134;6.548;2023-07-02T12:28:44;12.32;;;6.07;;
78344;SDS011;67620;51.134;6.548;2023-07-02T12:31:09;8.25;;;5.78;;
78344;SDS011;67620;51.134;6.548;2023-07-02T12:33:35;8.90;;;5.47;;
78344;SDS011;67620;51.134;6.548;2023-07-02T12:36:01;10.80;;;6.20;;
78344;SDS011;67620;51.134;6.548;2023-07-02T12:38:28;9.90;;;5.80;;
78344;SDS011;67620;51.134;6.548;2023-07-02T12:40:53;8.98;;;5.60;;
78344;SDS011;67620;51.134;6.548;2023-07-02T12:43:19;8.30;;;5.53;;
78344;SDS011;67620;51.134;6.548;2023-07-02T12:45:45;10.13;;;6.13;;
78344;SDS011;67620;51.134;6.548;2023-07-02T12:48:10;10.80;;;5.72;;
78344;SDS011;67620;51.134;6.548;2023-07-02T12:50:39;10.90;;;6.22;;
78344;SDS011;67620;51.134;6.548;2023-07-02T12:53:05;7.72;;;5.40;;
78344;SDS011;67620;51.134;6.548;2023-07-02T12:55:30;15.70;;;6.25;;
78344;SDS011;67620;51.134;6.548;2023-07-02T12:57:56;16.38;;;6.18;;
78344;SDS011;67620;51.134;6.548;2023-07-02T13:00:22;12.98;;;6.00;;
78344;SDS011;67620;51.134;6.548;2023-07-02T13:02:48;14.15;;;6.13;;
78344;SDS011;67620;51.134;6.548;2023-07-02T13:05:13;14.30;;;5.82;;
78344;SDS011;67620;51.134;6.548;2023-07-02T13:07:39;10.80;;;5.82;;
78344;SDS011;67620;51.134;6.548;2023-07-02T13:10:05;10.25;;;5.88;;
78344;SDS011;67620;51.134;6.548;2023-07-02T13:12:31;9.95;;;5.28;;
78344;SDS011;67620;51.134;6.548;2023-07-02T13:14:56;9.48;;;5.38;;
78344;SDS011;67620;51.134;6.548;2023-07-02T13:17:22;12.18;;;5.90;;
78344;SDS011;67620;51.134;6.548;2023-07-02T13:19:47;11.32;;;6.22;;
78344;SDS011;67620;51.134;6.548;2023-07-02T13:22:13;10.93;;;5.97;;
78344;SDS011;67620;51.134;6.548;2023-07-02T13:24:39;15.00;;;8.85;;
78344;SDS011;67620;51.134;6.548;2023-07-02T13:27:07;19.42;;;11.45;;
78344;SDS011;67620;51.134;6.548;2023-07-02T13:29:37;16.50;;;12.75;;
78344;SDS011;67620;51.134;6.548;2023-07-02T13:32:03;17.55;;;14.50;;
78344;SDS011;67620;51.134;6.548;2023-07-02T13:34:29;19.90;;;14.55;;
78344;SDS011;67620;51.134;6.548;2023-07-02T13:36:54;19.50;;;13.98;;
78344;SDS011;67620;51.134;6.548;2023-07-02T13:39:20;21.80;;;18.48;;
78344;SDS011;67620;51.134;6.548;2023-07-02T13:41:45;21.73;;;18.05;;
78344;SDS011;67620;51.134;6.548;2023-07-02T13:44:11;20.90;;;17.30;;
78344;SDS011;67620;51.134;6.548;2023-07-02T13:46:36;24.77;;;18.70;;
78344;SDS011;67620;51.134;6.548;2023-07-02T13:49:02;21.73;;;18.05;;
78344;SDS011;67620;51.134;6.548;2023-07-02T13:51:27;21.33;;;17.00;;
78344;SDS011;67620;51.134;6.548;2023-07-02T13:53:53;19.75;;;16.75;;
78344;SDS011;67620;51.134;6.548;2023-07-02T13:56:18;18.55;;;15.15;;
78344;SDS011;67620;51.134;6.548;2023-07-02T13:58:58;18.63;;;15.85;;
78344;SDS011;67620;51.134;6.548;2023-07-02T14:01:24;20.23;;;16.45;;
78344;SDS011;67620;51.134;6.548;2023-07-02T14:03:51;18.75;;;15.25;;
78344;SDS011;67620;51.134;6.548;2023-07-02T14:06:18;17.35;;;14.60;;
78344;SDS011;67620;51.134;6.548;2023-07-02T14:08:44;18.67;;;14.70;;
78344;SDS011;67620;51.134;6.548;2023-07-02T14:11:09;18.75;;;14.90;;
78344;SDS011;67620;51.134;6.548;2023-07-02T14:13:34;17.73;;;14.35;;
78344;SDS011;67620;51.134;6.548;2023-07-02T14:16:01;16.25;;;13.90;;
78344;SDS011;67620;51.134;6.548;2023-07-02T14:18:26;14.98;;;13.20;;
78344;SDS011;67620;51.134;6.548;2023-07-02T14:20:52;17.17;;;14.10;;
78344;SDS011;67620;51.134;6.548;2023-07-02T14:23:17;18.73;;;14.30;;
78344;SDS011;67620;51.134;6.548;2023-07-02T14:25:43;18.85;;;13.90;;
78344;SDS011;67620;51.134;6.548;2023-07-02T14:28:08;15.20;;;12.88;;
78344;SDS011;67620;51.134;6.548;2023-07-02T14:30:34;17.38;;;13.48;;
78344;SDS011;67620;51.134;6.548;2023-07-02T14:33:00;15.52;;;12.35;;
78344;SDS011;67620;51.134;6.548;2023-07-02T14:35:26;15.70;;;12.23;;
78344;SDS011;67620;51.134;6.548;2023-07-02T14:37:53;17.13;;;12.65;;
78344;SDS011;67620;51.134;6.548;2023-07-02T14:40:19;14.90;;;12.45;;
78344;SDS011;67620;51.134;6.548;2023-07-02T14:42:44;16.40;;;13.57;;